Saint Anne, IL (60964)

12:01 PM CST on February 07, 2016 (GMT -0600)
rural Saint Anne | | Change Station
CLOSE
Current Station
Personal Weather Station
Location: Saint Anne, IL
Elevation: 689 ft
Nearby Weather Stations

Elev 689 ft 41.06 °N, 87.75 °W | Updated 3 minutes ago

Clear
Clear
45.7 °F
Feels Like 39 °F
N
14.0
Wind Variable Wind from West

Today
High -- | Low -- °F
--% Chance of Precip.
Yesterday
High -- | Low -- °F
Precip. -- in
Pressure 29.83 in
Visibility 10.0 miles
Clouds Clear
Windchill 39 °F
Dew Point 36 °F
Humidity 69%
Rainfall 0.00 in
Snow Depth Not available.
6:55 AM 5:14 PM
Waning Crescent, 1% visible
METAR KIKK 071735Z AUTO 22017G25KT 10SM CLR 08/00 A2983 RMK AO2 T00750000
Pressure 29.83 in
Visibility 10.0 miles
Clouds Clear
Windchill 39 °F
Dew Point 36 °F
Humidity 69%
Rainfall 0.00 in
Snow Depth Not available.
6:55 AM 5:14 PM
Waning Crescent, 1% visible
METAR KIKK 071735Z AUTO 22017G25KT 10SM CLR 08/00 A2983 RMK AO2 T00750000

10-Day Weather Forecast

Almanac

Astronomy

Feb. 07, 2016 Rise Set
Actual Time
Civil Twilight
Nautical Twilight
Astronomical Twilight
Moon
Length of Visible Light
Length of Day
Tomorrow will be .
, % of the Moon is Illuminated

Today's Extremes

State Highs State Lows

Community

WunderPhotos

Upload Photos

1,891,263 photos uploaded!

WunderBlog® & News

Nearby

Air Quality

  Air Quality AQ Index Pollutant
Not available.

Snow Depth

Station Depth Elevation

Earthquake Activity

City Distance Mag. Time & Date
Minimum magnitude displayed is 2.5.

Coastal Water Temperatures

Place Temperature

Stations

Nearby Weather Stations

Station Location Temp. Windchill Dew Point Humidity Wind Precip. Elev Updated Type
                   

Watches & Warnings

There are currently no watches in effect.